createdAt,value
2022-12-18T00:01:39.692Z,102301.38
2022-12-18T00:04:26.114Z,102308.19
2022-12-18T00:07:11.003Z,102303.88
2022-12-18T00:09:56.031Z,102304.63
2022-12-18T00:12:41.026Z,102298.69
2022-12-18T00:15:26.189Z,102310.78
2022-12-18T00:18:13.790Z,102304.88
2022-12-18T00:21:02.915Z,102301.41
2022-12-18T00:23:49.788Z,102311.72
2022-12-18T00:26:37.854Z,102317.69
2022-12-18T00:29:23.285Z,102321.16
2022-12-18T00:32:08.348Z,102321.16
2022-12-18T00:34:53.414Z,102328.84
2022-12-18T00:37:38.693Z,102322.75
2022-12-18T00:40:23.883Z,102318.44
2022-12-18T00:43:10.161Z,102317.63
2022-12-18T00:45:55.673Z,102322.00
2022-12-18T00:48:40.394Z,102318.63
2022-12-18T00:51:25.953Z,102315.25
2022-12-18T00:54:11.010Z,102314.44
2022-12-18T00:56:56.132Z,102317.84
2022-12-18T00:59:41.291Z,102318.66
2022-12-18T01:02:26.544Z,102313.53
2022-12-18T01:05:13.533Z,102311.78
2022-12-18T01:07:59.338Z,102304.84
2022-12-18T01:10:44.474Z,102311.72
2022-12-18T01:13:30.015Z,102316.00
2022-12-18T01:16:17.774Z,102308.34
2022-12-18T01:19:02.786Z,102303.97
2022-12-18T01:21:47.898Z,102303.19
2022-12-18T01:24:33.033Z,102314.34
2022-12-18T01:27:18.315Z,102308.41
2022-12-18T01:30:03.951Z,102312.69
2022-12-18T01:32:48.923Z,102304.94
2022-12-18T01:35:33.792Z,102303.25
2022-12-18T01:38:18.938Z,102296.44
2022-12-18T01:41:03.700Z,102296.41
2022-12-18T01:44:00.200Z,102295.56
2022-12-18T01:46:45.023Z,102305.88
2022-12-18T01:49:30.295Z,102311.81
2022-12-18T01:52:16.281Z,102316.13
2022-12-18T01:55:04.158Z,102311.00
2022-12-18T01:57:52.781Z,102309.28
2022-12-18T02:00:37.809Z,102305.00
2022-12-18T02:03:22.784Z,102298.16
2022-12-18T02:06:34.183Z,102299.03
2022-12-18T02:09:27.548Z,102294.69
2022-12-18T02:12:22.217Z,102293.91
2022-12-18T02:15:19.978Z,102287.03
2022-12-18T02:18:14.252Z,102299.91
2022-12-18T02:21:09.574Z,102291.31
2022-12-18T02:24:53.074Z,102291.31
2022-12-18T02:27:40.289Z,102299.09
2022-12-18T02:30:26.487Z,102292.25
2022-12-18T02:33:13.306Z,102294.84
2022-12-18T02:36:00.095Z,102291.38
2022-12-18T02:38:47.344Z,102286.25
2022-12-18T02:41:32.582Z,102299.09
2022-12-18T02:44:17.318Z,102297.34
2022-12-18T02:47:03.310Z,102299.09
2022-12-18T02:50:35.487Z,102293.13
2022-12-18T02:53:34.121Z,102297.34
2022-12-18T02:56:26.100Z,102286.22
2022-12-18T02:59:19.764Z,102279.34
2022-12-18T03:02:24.723Z,102287.06
2022-12-18T03:05:18.372Z,102298.25
2022-12-18T03:08:09.275Z,102290.53
2022-12-18T03:11:03.262Z,102293.13
2022-12-18T03:13:57.450Z,102287.97
2022-12-18T03:16:43.174Z,102284.50
2022-12-18T03:19:30.447Z,102276.78
2022-12-18T03:22:17.039Z,102267.41
2022-12-18T03:25:06.029Z,102264.00
2022-12-18T03:27:57.362Z,102252.97
2022-12-18T03:30:46.531Z,102259.81
2022-12-18T03:33:38.624Z,102259.84
2022-12-18T03:36:24.519Z,102253.81
2022-12-18T03:39:10.006Z,102262.31
2022-12-18T03:42:22.475Z,102265.69
2022-12-18T03:45:13.080Z,102269.06
2022-12-18T03:48:07.049Z,102260.50
2022-12-18T03:51:09.357Z,102254.47
2022-12-18T03:54:04.836Z,102246.69
2022-12-18T03:57:05.670Z,102244.97
2022-12-18T03:59:56.580Z,102250.78
2022-12-18T04:02:49.185Z,102248.19
2022-12-18T04:05:35.430Z,102250.59
2022-12-18T04:08:22.582Z,102248.00
2022-12-18T04:11:07.842Z,102236.81
2022-12-18T04:13:57.712Z,102239.34
2022-12-18T04:16:42.811Z,102234.16
2022-12-18T04:19:27.799Z,102234.19
2022-12-18T04:22:12.905Z,102235.91
2022-12-18T04:24:58.199Z,102234.13
2022-12-18T04:27:43.263Z,102234.13
2022-12-18T04:30:28.361Z,102237.56
2022-12-18T04:33:14.304Z,102246.16
2022-12-18T04:35:59.307Z,102233.31
2022-12-18T04:38:44.579Z,102229.78
2022-12-18T04:41:29.398Z,102226.41
2022-12-18T04:44:15.116Z,102232.38
2022-12-18T04:46:59.964Z,102223.78
2022-12-18T04:49:45.001Z,102223.78
2022-12-18T04:52:33.167Z,102225.53
2022-12-18T04:55:18.156Z,102228.09
2022-12-18T04:58:03.138Z,102220.34
2022-12-18T05:00:48.180Z,102220.38
2022-12-18T05:03:33.606Z,102216.09
2022-12-18T05:06:18.596Z,102216.09
2022-12-18T05:09:03.979Z,102213.50
2022-12-18T05:11:49.092Z,102207.44
2022-12-18T05:14:34.274Z,102210.00
2022-12-18T05:17:19.568Z,102204.84
2022-12-18T05:20:04.915Z,102200.53
2022-12-18T05:22:50.448Z,102195.28
2022-12-18T05:25:35.434Z,102208.09
2022-12-18T05:28:21.178Z,102208.16
2022-12-18T05:31:06.731Z,102206.41
2022-12-18T05:33:51.737Z,102216.78
2022-12-18T05:36:36.960Z,102219.28
2022-12-18T05:39:22.130Z,102221.94
2022-12-18T05:42:06.984Z,102228.75
2022-12-18T05:44:52.157Z,102229.59
2022-12-18T05:47:37.009Z,102237.28
2022-12-18T05:50:22.089Z,102239.00
2022-12-18T05:53:07.918Z,102240.69
2022-12-18T05:55:53.016Z,102247.59
2022-12-18T05:58:38.555Z,102252.81
2022-12-18T06:01:26.245Z,102259.69
2022-12-18T06:04:11.515Z,102269.97
2022-12-18T06:06:56.609Z,102258.84
2022-12-18T06:09:41.467Z,102267.44
2022-12-18T06:12:26.960Z,102272.63
2022-12-18T06:15:11.764Z,102276.91
2022-12-18T06:17:56.874Z,102270.03
2022-12-18T06:20:42.311Z,102271.78
2022-12-18T06:23:27.638Z,102271.75
2022-12-18T06:26:14.151Z,102273.44
2022-12-18T06:28:59.393Z,102269.16
2022-12-18T06:31:44.523Z,102268.22
2022-12-18T06:34:29.208Z,102274.28
2022-12-18T06:37:14.393Z,102273.34
2022-12-18T06:39:59.301Z,102263.91
2022-12-18T06:42:44.436Z,102269.06
2022-12-18T06:45:29.605Z,102269.09
2022-12-18T06:48:14.714Z,102264.72
2022-12-18T06:51:00.236Z,102267.28
2022-12-18T06:53:45.388Z,102263.78
2022-12-18T06:56:31.108Z,102262.88
2022-12-18T06:59:16.222Z,102261.16
2022-12-18T07:02:01.462Z,102250.88
2022-12-18T07:04:46.538Z,102256.84
2022-12-18T07:07:31.474Z,102248.28
2022-12-18T07:10:16.718Z,102250.78
2022-12-18T07:13:01.463Z,102251.56
2022-12-18T07:15:46.599Z,102257.59
2022-12-18T07:18:31.660Z,102268.78
2022-12-18T07:21:19.566Z,102254.84
2022-12-18T07:24:05.435Z,102260.00
2022-12-18T07:26:50.090Z,102251.47
2022-12-18T07:29:35.158Z,102259.13
2022-12-18T07:32:20.248Z,102246.22
2022-12-18T07:35:05.347Z,102245.28
2022-12-18T07:37:50.318Z,102238.44
2022-12-18T07:40:35.453Z,102237.59
2022-12-18T07:43:20.655Z,102241.81
2022-12-18T07:46:06.465Z,102245.25
2022-12-18T07:48:51.253Z,102252.06
2022-12-18T07:51:36.327Z,102258.16
2022-12-18T07:54:21.514Z,102257.19
2022-12-18T07:57:16.488Z,102259.72
2022-12-18T08:00:13.179Z,102247.66
2022-12-18T08:02:58.766Z,102245.03
2022-12-18T08:05:44.195Z,102236.47
2022-12-18T08:08:30.246Z,102240.66
2022-12-18T08:11:15.405Z,102229.53
2022-12-18T08:14:00.305Z,102226.91
2022-12-18T08:16:45.509Z,102214.94
2022-12-18T08:19:30.339Z,102215.66
2022-12-18T08:22:15.345Z,102207.78
2022-12-18T08:25:00.624Z,102196.75
2022-12-18T08:27:45.324Z,102191.44
2022-12-18T08:30:30.525Z,102204.25
2022-12-18T08:33:15.492Z,102199.97
2022-12-18T08:36:01.772Z,102186.00
2022-12-18T08:38:47.454Z,102181.50
2022-12-18T08:41:32.189Z,102176.28
2022-12-18T08:44:36.065Z,102180.63
2022-12-18T08:47:21.059Z,102186.53
2022-12-18T08:50:06.952Z,102181.22
2022-12-18T08:52:52.365Z,102191.38
2022-12-18T08:55:37.257Z,102185.97
2022-12-18T08:58:22.553Z,102173.91
2022-12-18T09:01:10.511Z,102172.09
2022-12-18T09:03:55.611Z,102176.19
2022-12-18T09:06:41.046Z,102168.25
2022-12-18T09:09:25.875Z,102165.59
2022-12-18T09:12:10.755Z,102167.44
2022-12-18T09:14:57.116Z,102168.22
2022-12-18T09:17:42.058Z,102173.94
2022-12-18T09:20:29.135Z,102173.41
2022-12-18T09:23:14.525Z,102177.53
2022-12-18T09:26:00.542Z,102169.78
2022-12-18T09:28:45.596Z,102169.53
2022-12-18T09:31:30.934Z,102156.47
2022-12-18T09:34:16.657Z,102152.34
2022-12-18T09:37:01.650Z,102138.41
2022-12-18T09:39:46.845Z,102143.34
2022-12-18T09:42:33.200Z,102142.75
2022-12-18T09:45:18.905Z,102141.00
2022-12-18T09:48:06.392Z,102131.06
2022-12-18T09:50:56.761Z,102125.84
2022-12-18T09:53:43.748Z,102111.78
2022-12-18T09:56:33.267Z,102113.69
2022-12-18T09:59:37.765Z,102105.19
2022-12-18T10:02:25.995Z,102118.31
2022-12-18T10:05:21.551Z,102113.84
2022-12-18T10:08:22.265Z,102103.25
2022-12-18T10:11:29.338Z,102093.63
2022-12-18T10:14:47.768Z,102099.25
2022-12-18T10:17:46.670Z,102100.50
2022-12-18T10:20:50.419Z,102106.75
2022-12-18T10:23:52.515Z,102097.19
2022-12-18T10:26:37.506Z,102096.16
2022-12-18T10:29:23.140Z,102104.22
2022-12-18T10:32:15.009Z,102103.44
2022-12-18T10:35:01.090Z,102103.78
2022-12-18T10:38:05.786Z,102089.81
2022-12-18T10:40:57.886Z,102088.50
2022-12-18T10:43:42.756Z,102083.66
2022-12-18T10:46:27.959Z,102083.47
2022-12-18T10:49:29.826Z,102080.72
2022-12-18T10:52:23.463Z,102076.69
2022-12-18T10:55:17.657Z,102062.22
2022-12-18T10:58:35.736Z,102060.91
2022-12-18T11:01:21.559Z,102068.22
2022-12-18T11:04:10.014Z,102060.91
2022-12-18T11:07:02.003Z,102058.88
2022-12-18T11:10:01.233Z,102058.16
2022-12-18T11:12:46.967Z,102053.59
2022-12-18T11:15:32.090Z,102056.03
2022-12-18T11:18:38.932Z,102064.22
2022-12-18T11:21:23.932Z,102066.09
2022-12-18T11:24:21.367Z,102060.91
2022-12-18T11:27:18.170Z,102049.44
2022-12-18T11:30:27.650Z,102059.66
2022-12-18T11:33:24.520Z,102058.72
2022-12-18T11:36:11.234Z,102046.53
2022-12-18T11:39:00.033Z,102039.97
2022-12-18T11:42:12.997Z,102042.34
2022-12-18T11:45:03.198Z,102036.25
2022-12-18T11:48:03.370Z,102024.06
2022-12-18T11:50:57.334Z,102036.59
2022-12-18T11:53:42.309Z,102030.38
2022-12-18T11:56:29.903Z,102022.47
2022-12-18T11:59:20.847Z,102017.66
2022-12-18T12:02:31.890Z,102011.38
2022-12-18T12:05:33.934Z,101999.97
2022-12-18T12:08:24.895Z,102001.91
2022-12-18T12:11:40.341Z,101996.72
2022-12-18T12:14:54.831Z,101994.91
2022-12-18T12:17:54.063Z,101989.00
2022-12-18T12:21:10.491Z,101989.59
2022-12-18T12:24:22.735Z,101977.59
2022-12-18T12:27:40.821Z,101974.03
2022-12-18T12:30:40.699Z,101966.34
2022-12-18T12:33:44.558Z,101967.72
2022-12-18T12:36:43.758Z,101967.34
2022-12-18T12:39:35.349Z,101969.72
2022-12-18T12:42:50.883Z,101968.75
2022-12-18T12:46:07.842Z,101982.72
2022-12-18T12:48:57.082Z,101984.63
2022-12-18T12:51:47.079Z,101988.50
2022-12-18T12:54:34.603Z,101971.28
2022-12-18T12:57:34.332Z,101969.47
2022-12-18T13:00:20.831Z,101955.69
2022-12-18T13:03:15.001Z,101959.78
2022-12-18T13:06:33.065Z,101953.81
2022-12-18T13:09:18.155Z,101977.53
2022-12-18T13:12:30.021Z,101970.00
2022-12-18T13:16:03.652Z,101974.09
2022-12-18T13:18:51.068Z,101961.97
2022-12-18T13:21:36.034Z,101951.22
2022-12-18T13:24:27.221Z,101941.53
2022-12-18T13:27:46.441Z,101941.47
2022-12-18T13:30:32.597Z,101934.19
2022-12-18T13:33:17.504Z,101941.56
2022-12-18T13:36:27.946Z,101949.22
2022-12-18T13:39:23.822Z,101948.09
2022-12-18T13:42:32.775Z,101942.78
2022-12-18T13:46:05.318Z,101943.13
2022-12-18T13:48:57.854Z,101937.47
2022-12-18T13:51:48.897Z,101934.63
2022-12-18T13:54:40.699Z,101927.22
2022-12-18T13:57:36.492Z,101929.63
2022-12-18T14:00:29.405Z,101925.63
2022-12-18T14:03:27.142Z,101912.69
2022-12-18T14:06:14.013Z,101918.63
2022-12-18T14:09:00.686Z,101915.63
2022-12-18T14:11:51.049Z,101909.59
2022-12-18T14:14:37.345Z,101901.94
2022-12-18T14:17:23.782Z,101910.75
2022-12-18T14:20:16.141Z,101913.97
2022-12-18T14:23:01.272Z,101922.53
2022-12-18T14:25:48.024Z,101914.63
2022-12-18T14:28:33.055Z,101914.69
2022-12-18T14:31:20.417Z,101918.19
2022-12-18T14:34:05.428Z,101910.66
2022-12-18T14:36:54.258Z,101913.25
2022-12-18T14:39:39.473Z,101897.78
2022-12-18T14:42:28.760Z,101894.66
2022-12-18T14:45:46.869Z,101889.31
2022-12-18T14:48:43.138Z,101890.25
2022-12-18T14:51:30.583Z,101903.16
2022-12-18T14:54:18.799Z,101904.97
2022-12-18T14:57:20.015Z,101904.25
2022-12-18T15:00:07.361Z,101906.06
2022-12-18T15:02:56.326Z,101895.69
2022-12-18T15:05:41.409Z,101902.53
2022-12-18T15:08:35.509Z,101894.94
2022-12-18T15:11:46.047Z,101884.47
2022-12-18T15:14:30.769Z,101888.91
2022-12-18T15:17:26.743Z,101880.16
2022-12-18T15:20:11.776Z,101879.38
2022-12-18T15:22:56.978Z,101882.91
2022-12-18T15:25:42.013Z,101886.38
2022-12-18T15:28:34.211Z,101889.94
2022-12-18T15:31:38.210Z,101881.28
2022-12-18T15:34:26.103Z,101876.00
2022-12-18T15:37:11.150Z,101873.44
2022-12-18T15:39:56.357Z,101882.91
2022-12-18T15:43:00.238Z,101864.94
2022-12-18T15:45:45.209Z,101868.41
2022-12-18T15:48:30.139Z,101860.38
2022-12-18T15:51:18.914Z,101860.53
2022-12-18T15:54:07.318Z,101857.00
2022-12-18T15:57:10.839Z,101866.56
2022-12-18T15:59:58.826Z,101860.44
2022-12-18T16:02:43.942Z,101868.13
2022-12-18T16:05:30.570Z,101861.22
2022-12-18T16:08:15.800Z,101869.91
2022-12-18T16:11:00.935Z,101868.25
2022-12-18T16:13:45.815Z,101858.81
2022-12-18T16:16:30.962Z,101862.22
2022-12-18T16:19:16.983Z,101863.78
2022-12-18T16:22:04.906Z,101851.72
2022-12-18T16:24:51.946Z,101853.44
2022-12-18T16:27:37.410Z,101844.91
2022-12-18T16:30:26.345Z,101844.88
2022-12-18T16:33:11.853Z,101853.41
2022-12-18T16:35:56.753Z,101850.84
2022-12-18T16:38:41.926Z,101857.78
2022-12-18T16:41:33.161Z,101854.22
2022-12-18T16:44:19.328Z,101849.06
2022-12-18T16:47:04.608Z,101851.00
2022-12-18T16:49:52.699Z,101839.84
2022-12-18T16:52:38.232Z,101841.50
2022-12-18T16:55:23.395Z,101848.41
2022-12-18T16:58:08.364Z,101843.22
2022-12-18T17:00:53.159Z,101839.72
2022-12-18T17:03:38.641Z,101847.63
2022-12-18T17:06:25.503Z,101848.44
2022-12-18T17:09:16.100Z,101851.00
2022-12-18T17:12:04.168Z,101855.41
2022-12-18T17:14:49.734Z,101861.56
2022-12-18T17:17:36.455Z,101859.75
2022-12-18T17:20:21.269Z,101846.06
2022-12-18T17:23:06.083Z,101847.00
2022-12-18T17:25:56.322Z,101845.22
2022-12-18T17:28:41.519Z,101845.22
2022-12-18T17:31:28.624Z,101831.50
2022-12-18T17:34:14.385Z,101829.13
2022-12-18T17:36:59.531Z,101834.94
2022-12-18T17:39:44.727Z,101841.94
2022-12-18T17:42:30.029Z,101832.50
2022-12-18T17:45:15.259Z,101839.34
2022-12-18T17:48:00.261Z,101835.88
2022-12-18T17:50:45.745Z,101830.69
2022-12-18T17:53:31.034Z,101838.38
2022-12-18T17:56:18.289Z,101834.88
2022-12-18T17:59:03.628Z,101823.88
2022-12-18T18:01:49.027Z,101828.22
2022-12-18T18:04:33.820Z,101832.34
2022-12-18T18:07:19.021Z,101838.47
2022-12-18T18:10:04.702Z,101831.50
2022-12-18T18:13:08.158Z,101829.06
2022-12-18T18:15:57.517Z,101832.38
2022-12-18T18:18:42.547Z,101840.91
2022-12-18T18:21:28.580Z,101843.03
2022-12-18T18:24:16.635Z,101828.13
2022-12-18T18:27:01.645Z,101816.13
2022-12-18T18:29:46.704Z,101828.19
2022-12-18T18:32:31.801Z,101824.56
2022-12-18T18:35:51.907Z,101836.66
2022-12-18T18:38:21.945Z,101834.78
2022-12-18T18:41:07.199Z,101841.69
2022-12-18T18:43:56.646Z,101852.84
2022-12-18T18:46:41.620Z,101845.94
2022-12-18T18:49:28.274Z,101831.47
2022-12-18T18:52:13.001Z,101839.25
2022-12-18T18:55:12.947Z,101843.31
2022-12-18T18:57:58.517Z,101828.00
2022-12-18T19:00:45.113Z,101836.53
2022-12-18T19:03:32.239Z,101829.69
2022-12-18T19:06:23.826Z,101817.53
2022-12-18T19:09:09.730Z,101817.56
2022-12-18T19:12:13.279Z,101817.31
2022-12-18T19:14:58.420Z,101821.56
2022-12-18T19:17:44.777Z,101823.38
2022-12-18T19:20:32.111Z,101823.25
2022-12-18T19:23:17.296Z,101832.75
2022-12-18T19:26:26.907Z,101824.72
2022-12-18T19:29:10.813Z,101824.16
2022-12-18T19:31:55.929Z,101815.41
2022-12-18T19:34:41.852Z,101820.53
2022-12-18T19:37:28.274Z,101812.66
2022-12-18T19:40:13.832Z,101820.25
2022-12-18T19:42:58.574Z,101843.56
2022-12-18T19:45:44.185Z,101844.09
2022-12-18T19:48:29.003Z,101840.69
2022-12-18T19:51:17.553Z,101833.00
2022-12-18T19:54:02.692Z,101823.63
2022-12-18T19:56:47.523Z,101833.09
2022-12-18T19:59:32.596Z,101836.50
2022-12-18T20:02:18.903Z,101824.28
2022-12-18T20:05:06.572Z,101815.75
2022-12-18T20:07:53.055Z,101815.53
2022-12-18T20:10:38.151Z,101798.28
2022-12-18T20:13:23.326Z,101823.13
2022-12-18T20:16:08.743Z,101829.19
2022-12-18T20:18:55.098Z,101821.50
2022-12-18T20:21:41.315Z,101818.84
2022-12-18T20:24:26.909Z,101821.16
2022-12-18T20:27:16.142Z,101808.09
2022-12-18T20:30:03.468Z,101818.34
2022-12-18T20:32:48.577Z,101821.91
2022-12-18T20:35:33.667Z,101827.78
2022-12-18T20:38:18.542Z,101827.91
2022-12-18T20:41:16.216Z,101824.31
2022-12-18T20:44:01.209Z,101825.19
2022-12-18T20:46:46.263Z,101828.47
2022-12-18T20:49:31.650Z,101832.59
2022-12-18T20:52:16.447Z,101829.13
2022-12-18T20:55:05.090Z,101834.13
2022-12-18T20:57:50.344Z,101826.38
2022-12-18T21:00:35.273Z,101829.13
2022-12-18T21:03:20.089Z,101835.81
2022-12-18T21:06:05.034Z,101838.19
2022-12-18T21:08:50.244Z,101826.25
2022-12-18T21:11:53.597Z,101826.28
2022-12-18T21:14:38.557Z,101822.63
2022-12-18T21:17:23.698Z,101820.13
2022-12-18T21:20:11.275Z,101831.16
2022-12-18T21:23:08.931Z,101826.66
2022-12-18T21:26:22.925Z,101822.44
2022-12-18T21:29:11.787Z,101825.59
2022-12-18T21:31:56.822Z,101831.53
2022-12-18T21:34:46.225Z,101834.06
2022-12-18T21:37:33.080Z,101834.00
2022-12-18T21:40:18.340Z,101838.13
2022-12-18T21:43:22.242Z,101833.75
2022-12-18T21:46:07.498Z,101843.28
2022-12-18T21:48:52.534Z,101841.47
2022-12-18T21:51:37.835Z,101843.09
2022-12-18T21:54:23.598Z,101826.81
2022-12-18T21:57:08.568Z,101813.34
2022-12-18T21:59:53.606Z,101825.31
2022-12-18T22:02:38.995Z,101819.03
2022-12-18T22:05:24.077Z,101819.13
2022-12-18T22:08:09.027Z,101808.44
2022-12-18T22:10:54.105Z,101800.88
2022-12-18T22:13:39.519Z,101797.28
2022-12-18T22:16:24.840Z,101792.78
2022-12-18T22:19:11.001Z,101793.75
2022-12-18T22:21:56.294Z,101782.28
2022-12-18T22:24:41.300Z,101781.69
2022-12-18T22:27:26.581Z,101791.16
2022-12-18T22:30:14.318Z,101793.41
2022-12-18T22:32:59.523Z,101787.38
2022-12-18T22:35:44.822Z,101777.66
2022-12-18T22:38:29.945Z,101761.38
2022-12-18T22:41:15.291Z,101769.25
2022-12-18T22:44:00.308Z,101767.22
2022-12-18T22:46:58.284Z,101765.50
2022-12-18T22:49:50.792Z,101757.78
2022-12-18T22:52:35.890Z,101759.31
2022-12-18T22:55:20.985Z,101753.25
2022-12-18T22:58:05.956Z,101757.50
2022-12-18T23:00:51.098Z,101749.75
2022-12-18T23:03:36.297Z,101746.34
2022-12-18T23:06:23.298Z,101743.72
2022-12-18T23:09:18.003Z,101746.91
2022-12-18T23:12:03.697Z,101752.09
2022-12-18T23:14:48.851Z,101745.09
2022-12-18T23:17:33.956Z,101739.75
2022-12-18T23:20:19.062Z,101733.63
2022-12-18T23:23:03.935Z,101723.22
2022-12-18T23:25:48.845Z,101716.22
2022-12-18T23:28:35.070Z,101726.63
2022-12-18T23:31:26.314Z,101713.44
2022-12-18T23:34:13.637Z,101707.34
2022-12-18T23:36:58.433Z,101712.34
2022-12-18T23:39:43.486Z,101701.97
2022-12-18T23:42:28.685Z,101705.41
2022-12-18T23:45:17.982Z,101705.22
2022-12-18T23:48:03.170Z,101693.25
2022-12-18T23:50:48.034Z,101688.66
2022-12-18T23:53:33.257Z,101682.56
2022-12-18T23:56:18.371Z,101675.00
2022-12-18T23:59:03.305Z,101680.91
